createdAt,value
2018-05-03T00:01:00.947Z,8.33
2018-05-03T00:03:29.745Z,8.28
2018-05-03T00:05:58.418Z,8.23
2018-05-03T00:08:27.010Z,8.22
2018-05-03T00:10:56.194Z,8.20
2018-05-03T00:13:24.860Z,8.21
2018-05-03T00:15:53.898Z,8.30
2018-05-03T00:18:22.234Z,8.26
2018-05-03T00:20:50.444Z,8.33
2018-05-03T00:23:19.526Z,8.22
2018-05-03T00:25:48.215Z,8.23
2018-05-03T00:28:16.490Z,8.28
2018-05-03T00:30:44.871Z,8.27
2018-05-03T00:33:13.278Z,8.27
2018-05-03T00:35:42.038Z,8.26
2018-05-03T00:38:10.320Z,8.25
2018-05-03T00:40:40.043Z,8.23
2018-05-03T00:43:08.403Z,8.17
2018-05-03T00:45:37.496Z,8.17
2018-05-03T00:48:05.994Z,8.08
2018-05-03T00:50:34.260Z,7.93
2018-05-03T00:53:02.514Z,7.87
2018-05-03T00:55:32.444Z,7.88
2018-05-03T00:58:00.830Z,7.92
2018-05-03T01:00:29.107Z,7.99
2018-05-03T01:02:57.706Z,8.04
2018-05-03T01:05:26.559Z,8.17
2018-05-03T01:07:55.598Z,8.26
2018-05-03T01:10:23.987Z,8.29
2018-05-03T01:12:52.268Z,8.30
2018-05-03T01:15:20.606Z,8.30
2018-05-03T01:17:48.878Z,8.39
2018-05-03T01:20:17.397Z,8.51
2018-05-03T01:22:45.979Z,8.58
2018-05-03T01:25:14.986Z,8.75
2018-05-03T01:27:43.363Z,8.90
2018-05-03T01:30:11.738Z,9.05
2018-05-03T01:32:40.026Z,9.07
2018-05-03T01:35:26.206Z,9.10
2018-05-03T01:37:54.539Z,9.15
2018-05-03T01:40:23.579Z,9.25
2018-05-03T01:42:52.681Z,9.26
2018-05-03T01:45:21.442Z,9.28
2018-05-03T01:47:51.048Z,9.23
2018-05-03T01:50:19.366Z,9.27
2018-05-03T01:52:48.450Z,9.31
2018-05-03T01:55:16.848Z,9.27
2018-05-03T01:57:45.956Z,9.29
2018-05-03T02:00:14.222Z,9.31
2018-05-03T02:02:42.531Z,9.32
2018-05-03T02:05:10.796Z,9.29
2018-05-03T02:07:39.903Z,9.31
2018-05-03T02:10:08.196Z,9.24
2018-05-03T02:12:37.282Z,9.23
2018-05-03T02:15:06.430Z,9.20
2018-05-03T02:17:34.711Z,9.15
2018-05-03T02:20:03.023Z,9.14
2018-05-03T02:22:31.594Z,9.10
2018-05-03T02:25:00.631Z,9.03
2018-05-03T02:27:29.687Z,9.04
2018-05-03T02:29:59.605Z,9.00
2018-05-03T02:32:27.871Z,8.97
2018-05-03T02:34:56.154Z,8.96
2018-05-03T02:37:24.523Z,8.94
2018-05-03T02:39:53.515Z,8.92
2018-05-03T02:42:22.658Z,8.85
2018-05-03T02:44:52.006Z,8.59
2018-05-03T02:47:20.287Z,8.41
2018-05-03T02:49:49.932Z,8.32
2018-05-03T02:52:18.279Z,8.24
2018-05-03T02:54:46.562Z,8.07
2018-05-03T02:57:32.740Z,8.06
2018-05-03T03:00:24.583Z,8.00
2018-05-03T03:06:39.186Z,7.94
2018-05-03T03:09:30.886Z,7.89
2018-05-03T03:15:43.014Z,7.82
2018-05-03T03:18:34.835Z,7.85
2018-05-03T03:21:27.078Z,7.87
2018-05-03T03:24:18.840Z,7.87
2018-05-03T03:30:36.656Z,8.14
2018-05-03T03:33:22.935Z,8.25
2018-05-03T03:36:10.838Z,8.30
2018-05-03T03:41:52.835Z,8.32
2018-05-03T03:44:39.231Z,8.29
2018-05-03T03:47:08.457Z,8.33
2018-05-03T03:49:37.026Z,8.47
2018-05-03T03:52:05.301Z,8.53
2018-05-03T03:54:33.587Z,8.53
2018-05-03T03:57:01.879Z,8.62
2018-05-03T03:59:30.948Z,8.66
2018-05-03T04:01:59.720Z,8.80
2018-05-03T04:04:29.252Z,8.81
2018-05-03T04:06:58.454Z,8.86
2018-05-03T04:09:27.134Z,8.99
2018-05-03T04:11:55.535Z,9.05
2018-05-03T04:14:23.890Z,9.13
2018-05-03T04:16:53.073Z,9.17
2018-05-03T04:19:39.399Z,9.24
2018-05-03T04:22:25.709Z,9.34
2018-05-03T04:25:11.907Z,9.36
2018-05-03T04:27:41.604Z,9.44
2018-05-03T04:30:10.712Z,9.45
2018-05-03T04:32:39.572Z,9.57
2018-05-03T04:35:07.885Z,9.78
2018-05-03T04:37:36.178Z,9.87
2018-05-03T04:40:04.899Z,10.05
2018-05-03T04:42:34.763Z,10.07
2018-05-03T04:45:03.571Z,10.21
2018-05-03T04:47:31.856Z,10.31
2018-05-03T04:50:00.151Z,10.46
2018-05-03T04:52:30.043Z,10.56
2018-05-03T04:54:59.405Z,10.67
2018-05-03T04:57:27.722Z,10.69
2018-05-03T04:59:57.666Z,10.88
2018-05-03T05:02:26.735Z,10.82
2018-05-03T05:04:55.399Z,10.87
2018-05-03T05:07:23.702Z,10.91
2018-05-03T05:09:52.527Z,10.88
2018-05-03T05:12:21.658Z,10.83
2018-05-03T05:14:50.218Z,10.76
2018-05-03T05:17:18.822Z,10.84
2018-05-03T05:19:47.210Z,10.74
2018-05-03T05:22:16.222Z,10.67
2018-05-03T05:24:45.360Z,10.74
2018-05-03T05:27:14.758Z,10.84
2018-05-03T05:29:44.481Z,10.58
2018-05-03T05:32:14.362Z,10.45
2018-05-03T05:34:43.263Z,10.47
2018-05-03T05:37:11.586Z,10.57
2018-05-03T05:39:40.221Z,10.59
2018-05-03T05:42:08.487Z,10.54
2018-05-03T05:44:36.769Z,10.47
2018-05-03T05:47:05.416Z,10.58
2018-05-03T05:49:33.827Z,10.49
2018-05-03T05:52:03.023Z,10.44
2018-05-03T05:54:31.410Z,10.51
2018-05-03T05:56:59.734Z,10.42
2018-05-03T05:59:28.793Z,10.45
2018-05-03T06:01:57.603Z,10.54
2018-05-03T06:04:27.147Z,10.57
2018-05-03T06:06:55.534Z,10.60
2018-05-03T06:09:24.322Z,10.51
2018-05-03T06:11:53.956Z,10.46
2018-05-03T06:14:22.265Z,10.44
2018-05-03T06:16:51.322Z,10.45
2018-05-03T06:19:19.810Z,10.45
2018-05-03T06:21:49.466Z,10.36
2018-05-03T06:24:18.514Z,10.35
2018-05-03T06:26:47.195Z,10.44
2018-05-03T06:29:15.461Z,10.58
2018-05-03T06:31:44.493Z,10.59
2018-05-03T06:34:13.357Z,10.65
2018-05-03T06:36:42.055Z,10.60
2018-05-03T06:39:10.322Z,10.57
2018-05-03T06:41:39.561Z,10.58
2018-05-03T06:44:08.080Z,10.46
2018-05-03T06:46:36.355Z,10.58
2018-05-03T06:49:04.652Z,10.53
2018-05-03T06:51:34.554Z,10.65
2018-05-03T06:54:03.277Z,10.54
2018-05-03T06:56:31.593Z,10.52
2018-05-03T06:59:00.646Z,10.47
2018-05-03T07:01:28.926Z,10.55
2018-05-03T07:03:57.473Z,10.57
2018-05-03T07:06:26.615Z,10.68
2018-05-03T07:08:55.518Z,10.82
2018-05-03T07:11:24.478Z,10.90
2018-05-03T07:13:52.760Z,10.88
2018-05-03T07:16:21.447Z,10.78
2018-05-03T07:18:50.145Z,10.82
2018-05-03T07:21:18.413Z,10.84
2018-05-03T07:23:46.774Z,10.86
2018-05-03T07:26:15.886Z,11.01
2018-05-03T07:28:44.181Z,11.12
2018-05-03T07:31:12.846Z,11.22
2018-05-03T07:33:43.246Z,11.43
2018-05-03T07:36:11.531Z,11.33
2018-05-03T07:38:41.202Z,11.27
2018-05-03T07:41:09.560Z,11.20
2018-05-03T07:43:38.393Z,11.03
2018-05-03T07:46:14.699Z,11.00
2018-05-03T07:48:42.986Z,11.18
2018-05-03T07:51:11.255Z,11.22
2018-05-03T07:53:40.298Z,11.30
2018-05-03T07:56:08.580Z,11.37
2018-05-03T07:58:37.864Z,11.43
2018-05-03T08:01:07.524Z,11.37
2018-05-03T08:03:35.794Z,11.56
2018-05-03T08:06:04.067Z,11.64
2018-05-03T08:08:33.298Z,11.53
2018-05-03T08:11:01.922Z,11.80
2018-05-03T08:13:31.374Z,11.94
2018-05-03T08:16:01.753Z,12.05
2018-05-03T08:18:30.411Z,12.01
2018-05-03T08:20:59.794Z,12.04
2018-05-03T08:23:29.151Z,11.79
2018-05-03T08:25:57.531Z,11.99
2018-05-03T08:28:26.678Z,12.20
2018-05-03T08:30:55.846Z,11.80
2018-05-03T08:33:24.887Z,11.91
2018-05-03T08:35:54.221Z,11.95
2018-05-03T08:38:23.210Z,12.18
2018-05-03T08:40:52.220Z,12.21
2018-05-03T08:43:22.483Z,12.11
2018-05-03T08:45:50.762Z,11.95
2018-05-03T08:48:19.671Z,12.15
2018-05-03T08:50:47.957Z,11.98
2018-05-03T08:53:17.490Z,12.12
2018-05-03T08:55:47.143Z,12.28
2018-05-03T08:58:15.770Z,12.21
2018-05-03T09:00:44.091Z,12.32
2018-05-03T09:03:13.222Z,12.55
2018-05-03T09:05:42.368Z,12.57
2018-05-03T09:08:12.958Z,12.51
2018-05-03T09:10:42.510Z,12.42
2018-05-03T09:13:13.419Z,12.53
2018-05-03T09:15:42.339Z,12.72
2018-05-03T09:18:13.075Z,12.69
2018-05-03T09:20:42.453Z,12.56
2018-05-03T09:23:11.535Z,12.60
2018-05-03T09:25:41.563Z,12.82
2018-05-03T09:28:10.631Z,12.98
2018-05-03T09:30:38.947Z,13.02
2018-05-03T09:33:07.219Z,12.90
2018-05-03T09:35:36.103Z,12.97
2018-05-03T09:38:04.571Z,12.99
2018-05-03T09:40:33.471Z,13.05
2018-05-03T09:43:03.129Z,12.89
2018-05-03T09:45:32.179Z,12.86
2018-05-03T09:48:01.472Z,13.03
2018-05-03T09:50:29.858Z,12.98
2018-05-03T09:52:58.127Z,13.13
2018-05-03T09:55:26.488Z,13.22
2018-05-03T09:57:55.914Z,13.31
2018-05-03T10:00:24.605Z,13.36
2018-05-03T10:02:52.979Z,13.54
2018-05-03T10:05:21.990Z,13.57
2018-05-03T10:07:51.418Z,13.90
2018-05-03T10:10:20.499Z,13.70
2018-05-03T10:12:48.882Z,13.80
2018-05-03T10:15:17.943Z,13.69
2018-05-03T10:17:46.264Z,13.78
2018-05-03T10:20:15.767Z,13.81
2018-05-03T10:22:44.481Z,13.90
2018-05-03T10:25:14.269Z,14.12
2018-05-03T10:27:43.842Z,14.21
2018-05-03T10:30:12.949Z,14.29
2018-05-03T10:32:41.218Z,14.32
2018-05-03T10:35:10.098Z,14.07
2018-05-03T10:37:38.418Z,13.98
2018-05-03T10:40:06.723Z,14.06
2018-05-03T10:42:37.630Z,14.00
2018-05-03T10:45:05.908Z,13.99
2018-05-03T10:47:34.609Z,13.92
2018-05-03T10:50:03.778Z,13.92
2018-05-03T10:52:32.146Z,13.91
2018-05-03T10:55:01.903Z,13.76
2018-05-03T10:57:31.865Z,14.00
2018-05-03T11:00:01.031Z,14.12
2018-05-03T11:02:30.103Z,14.18
2018-05-03T11:04:58.447Z,14.53
2018-05-03T11:07:26.946Z,14.64
2018-05-03T11:09:58.044Z,14.35
2018-05-03T11:12:27.000Z,14.37
2018-05-03T11:14:55.267Z,14.52
2018-05-03T11:17:23.579Z,14.50
2018-05-03T11:19:53.034Z,14.75
2018-05-03T11:22:22.939Z,14.75
2018-05-03T11:24:51.611Z,14.64
2018-05-03T11:27:20.014Z,14.79
2018-05-03T11:29:48.282Z,14.83
2018-05-03T11:32:16.548Z,14.91
2018-05-03T11:34:44.939Z,14.85
2018-05-03T11:37:13.647Z,14.79
2018-05-03T11:39:41.931Z,15.08
2018-05-03T11:42:11.019Z,15.04
2018-05-03T11:44:39.291Z,14.96
2018-05-03T11:47:08.275Z,15.13
2018-05-03T11:49:36.607Z,14.89
2018-05-03T11:52:05.673Z,15.19
2018-05-03T11:54:34.312Z,15.17
2018-05-03T11:57:03.218Z,15.52
2018-05-03T11:59:31.613Z,15.06
2018-05-03T12:01:59.890Z,15.31
2018-05-03T12:04:28.162Z,15.42
2018-05-03T12:06:56.488Z,15.22
2018-05-03T12:09:27.662Z,15.60
2018-05-03T12:11:57.054Z,16.05
2018-05-03T12:14:26.613Z,16.11
2018-05-03T12:16:55.251Z,16.00
2018-05-03T12:19:25.635Z,16.00
2018-05-03T12:21:54.107Z,16.04
2018-05-03T12:24:22.458Z,16.43
2018-05-03T12:26:50.764Z,17.15
2018-05-03T12:29:19.050Z,18.63
2018-05-03T12:31:47.366Z,18.49
2018-05-03T12:34:16.962Z,18.42
2018-05-03T12:36:46.827Z,18.35
2018-05-03T12:39:15.128Z,19.43
2018-05-03T12:41:43.394Z,18.97
2018-05-03T12:44:12.690Z,19.55
2018-05-03T12:46:40.971Z,18.94
2018-05-03T12:49:09.766Z,19.22
2018-05-03T12:51:39.306Z,19.61
2018-05-03T12:54:08.370Z,19.11
2018-05-03T12:56:37.199Z,19.59
2018-05-03T12:59:06.449Z,19.45
2018-05-03T13:01:34.724Z,19.91
2018-05-03T13:04:02.997Z,19.95
2018-05-03T13:06:31.480Z,19.80
2018-05-03T13:08:59.763Z,20.97
2018-05-03T13:11:28.954Z,20.51
2018-05-03T13:13:57.273Z,19.63
2018-05-03T13:16:26.442Z,19.18
2018-05-03T13:18:54.787Z,20.60
2018-05-03T13:21:23.842Z,20.33
2018-05-03T13:23:53.207Z,20.82
2018-05-03T13:26:21.479Z,21.40
2018-05-03T13:28:50.603Z,20.78
2018-05-03T13:31:18.889Z,20.67
2018-05-03T13:33:47.211Z,20.85
2018-05-03T13:36:17.066Z,20.82
2018-05-03T13:38:46.154Z,20.00
2018-05-03T13:41:14.524Z,21.57
2018-05-03T13:43:43.113Z,23.21
2018-05-03T13:46:12.384Z,23.16
2018-05-03T13:48:41.931Z,23.39
2018-05-03T13:51:10.678Z,22.59
2018-05-03T13:53:39.736Z,21.91
2018-05-03T13:56:09.027Z,22.40
2018-05-03T13:58:37.339Z,22.51
2018-05-03T14:01:05.624Z,22.18
2018-05-03T14:03:34.874Z,22.59
2018-05-03T14:06:03.206Z,22.74
2018-05-03T14:08:32.251Z,24.52
2018-05-03T14:11:00.733Z,23.78
2018-05-03T14:13:30.083Z,23.40
2018-05-03T14:15:58.424Z,22.81
2018-05-03T14:18:27.671Z,20.80
2018-05-03T14:20:56.765Z,21.28
2018-05-03T14:23:25.724Z,21.84
2018-05-03T14:25:54.052Z,22.13
2018-05-03T14:28:23.094Z,22.03
2018-05-03T14:30:52.415Z,22.50
2018-05-03T14:33:21.638Z,23.73
2018-05-03T14:35:50.686Z,22.19
2018-05-03T14:38:19.004Z,22.47
2018-05-03T14:40:48.290Z,22.87
2018-05-03T14:43:17.374Z,21.98
2018-05-03T14:45:45.711Z,22.26
2018-05-03T14:48:14.025Z,21.43
2018-05-03T14:50:42.308Z,21.69
2018-05-03T14:53:10.929Z,22.30
2018-05-03T14:55:40.558Z,22.36
2018-05-03T14:58:08.840Z,22.47
2018-05-03T15:00:37.417Z,22.02
2018-05-03T15:03:06.959Z,21.19
2018-05-03T15:05:35.779Z,21.56
2018-05-03T15:08:04.074Z,21.95
2018-05-03T15:10:32.481Z,22.49
2018-05-03T15:13:01.602Z,21.87
2018-05-03T15:15:31.430Z,21.79
2018-05-03T15:17:59.714Z,22.27
2018-05-03T15:20:27.999Z,22.49
2018-05-03T15:22:57.393Z,22.97
2018-05-03T15:25:25.671Z,22.40
2018-05-03T15:27:55.131Z,21.36
2018-05-03T15:30:23.440Z,21.14
2018-05-03T15:32:51.729Z,21.90
2018-05-03T15:35:20.017Z,22.53
2018-05-03T15:37:48.786Z,21.76
2018-05-03T15:40:17.066Z,22.82
2018-05-03T15:42:46.078Z,22.59
2018-05-03T15:45:14.862Z,21.98
2018-05-03T15:47:43.983Z,20.92
2018-05-03T15:50:12.483Z,20.98
2018-05-03T15:52:41.113Z,20.01
2018-05-03T15:55:10.947Z,20.87
2018-05-03T15:57:39.707Z,20.80
2018-05-03T16:00:09.607Z,20.45
2018-05-03T16:02:38.127Z,21.32
2018-05-03T16:05:07.311Z,22.09
2018-05-03T16:07:36.822Z,23.26
2018-05-03T16:10:05.091Z,22.82
2018-05-03T16:12:35.035Z,22.26
2018-05-03T16:15:04.442Z,23.51
2018-05-03T16:17:34.525Z,22.34
2018-05-03T16:20:03.313Z,21.79
2018-05-03T16:22:31.603Z,21.85
2018-05-03T16:25:00.095Z,21.75
2018-05-03T16:27:28.719Z,20.66
2018-05-03T16:29:57.774Z,19.99
2018-05-03T16:32:26.047Z,20.27
2018-05-03T16:34:54.342Z,20.57
2018-05-03T16:37:23.078Z,20.72
2018-05-03T16:39:52.747Z,20.77
2018-05-03T16:42:21.420Z,21.51
2018-05-03T16:44:49.696Z,22.00
2018-05-03T16:47:18.155Z,20.72
2018-05-03T16:49:47.057Z,19.51
2018-05-03T16:52:15.464Z,19.50
2018-05-03T16:54:43.935Z,19.38
2018-05-03T16:57:12.293Z,19.56
2018-05-03T16:59:40.603Z,20.93
2018-05-03T17:02:08.958Z,19.67
2018-05-03T17:04:37.331Z,20.34
2018-05-03T17:07:05.792Z,21.09
2018-05-03T17:09:34.067Z,20.97
2018-05-03T17:12:03.530Z,20.31
2018-05-03T17:14:32.577Z,19.41
2018-05-03T17:17:01.447Z,18.42
2018-05-03T17:19:32.713Z,18.45
2018-05-03T17:22:01.426Z,17.88
2018-05-03T17:24:29.736Z,17.75
2018-05-03T17:26:58.037Z,17.24
2018-05-03T17:29:27.092Z,16.55
2018-05-03T17:31:56.285Z,16.41
2018-05-03T17:34:24.572Z,16.41
2018-05-03T17:36:54.387Z,16.21
2018-05-03T17:39:22.695Z,16.01
2018-05-03T17:41:51.739Z,16.01
2018-05-03T17:44:20.805Z,16.12
2018-05-03T17:46:49.946Z,15.82
2018-05-03T17:49:18.763Z,15.73
2018-05-03T17:51:47.691Z,15.96
2018-05-03T17:54:15.981Z,16.03
2018-05-03T17:56:44.280Z,15.54
2018-05-03T17:59:12.703Z,15.17
2018-05-03T18:01:41.197Z,14.92
2018-05-03T18:04:11.687Z,14.64
2018-05-03T18:06:39.975Z,14.51
2018-05-03T18:09:09.590Z,14.26
2018-05-03T18:11:38.213Z,13.97
2018-05-03T18:14:07.051Z,13.99
2018-05-03T18:16:35.443Z,14.04
2018-05-03T18:19:04.212Z,14.00
2018-05-03T18:21:34.143Z,14.02
2018-05-03T18:24:02.742Z,13.93
2018-05-03T18:26:31.798Z,13.97
2018-05-03T18:29:00.089Z,13.70
2018-05-03T18:31:28.880Z,13.52
2018-05-03T18:33:57.143Z,13.26
2018-05-03T18:36:25.819Z,13.32
2018-05-03T18:38:54.795Z,13.22
2018-05-03T18:41:23.105Z,13.13
2018-05-03T18:43:51.589Z,12.85
2018-05-03T18:46:20.324Z,12.95
2018-05-03T18:48:49.352Z,12.97
2018-05-03T18:51:18.162Z,12.95
2018-05-03T18:53:47.726Z,12.78
2018-05-03T18:56:16.779Z,12.80
2018-05-03T18:58:45.883Z,12.68
2018-05-03T19:01:14.904Z,12.57
2018-05-03T19:03:44.092Z,12.42
2018-05-03T19:06:13.766Z,12.31
2018-05-03T19:08:42.342Z,12.46
2018-05-03T19:11:11.176Z,12.24
2018-05-03T19:13:40.623Z,12.22
2018-05-03T19:16:09.663Z,12.19
2018-05-03T19:18:39.190Z,12.03
2018-05-03T19:21:08.073Z,12.08
2018-05-03T19:23:37.240Z,11.97
2018-05-03T19:26:05.909Z,11.77
2018-05-03T19:28:34.570Z,11.57
2018-05-03T19:31:04.589Z,11.56
2018-05-03T19:33:34.120Z,11.63
2018-05-03T19:36:03.995Z,11.41
2018-05-03T19:38:32.551Z,11.35
2018-05-03T19:41:00.856Z,11.28
2018-05-03T19:43:30.040Z,11.29
2018-05-03T19:45:59.201Z,11.26
2018-05-03T19:48:27.906Z,11.11
2018-05-03T19:50:57.669Z,11.16
2018-05-03T19:53:28.009Z,11.10
2018-05-03T19:55:56.531Z,10.89
2018-05-03T19:58:26.659Z,10.96
2018-05-03T20:00:55.549Z,10.89
2018-05-03T20:03:23.910Z,10.85
2018-05-03T20:05:52.231Z,10.81
2018-05-03T20:08:24.308Z,10.72
2018-05-03T20:10:53.382Z,10.54
2018-05-03T20:13:22.493Z,10.45
2018-05-03T20:15:50.879Z,10.11
2018-05-03T20:18:20.599Z,10.10
2018-05-03T20:20:50.350Z,10.00
2018-05-03T20:23:20.420Z,9.89
2018-05-03T20:25:48.707Z,9.76
2018-05-03T20:28:17.918Z,9.60
2018-05-03T20:30:47.499Z,9.53
2018-05-03T20:33:15.776Z,9.50
2018-05-03T20:35:44.353Z,9.55
2018-05-03T20:38:12.639Z,9.63
2018-05-03T20:40:41.259Z,9.55
2018-05-03T20:43:10.722Z,9.69
2018-05-03T20:45:39.476Z,9.63
2018-05-03T20:48:08.387Z,9.75
2018-05-03T20:50:37.520Z,9.72
2018-05-03T20:53:07.347Z,9.74
2018-05-03T20:55:37.002Z,9.60
2018-05-03T20:58:05.286Z,9.59
2018-05-03T21:00:34.083Z,9.63
2018-05-03T21:03:03.303Z,9.70
2018-05-03T21:05:32.008Z,9.71
2018-05-03T21:08:01.086Z,9.68
2018-05-03T21:10:30.061Z,9.66
2018-05-03T21:12:58.406Z,9.65
2018-05-03T21:15:27.411Z,9.49
2018-05-03T21:17:56.194Z,9.40
2018-05-03T21:20:26.224Z,9.34
2018-05-03T21:22:55.395Z,9.45
2018-05-03T21:25:23.676Z,9.29
2018-05-03T21:27:51.940Z,9.29
2018-05-03T21:30:21.175Z,9.24
2018-05-03T21:32:49.714Z,9.17
2018-05-03T21:35:18.986Z,9.13
2018-05-03T21:37:47.953Z,9.15
2018-05-03T21:40:17.502Z,9.04
2018-05-03T21:42:48.092Z,8.97
2018-05-03T21:45:17.066Z,9.01
2018-05-03T21:47:45.669Z,8.74
2018-05-03T21:50:13.950Z,8.71
2018-05-03T21:52:42.418Z,8.68
2018-05-03T21:55:10.714Z,8.66
2018-05-03T21:57:41.848Z,8.62
2018-05-03T22:00:10.114Z,8.52
2018-05-03T22:02:39.540Z,8.46
2018-05-03T22:05:09.434Z,8.37
2018-05-03T22:07:38.254Z,8.37
2018-05-03T22:10:06.892Z,8.43
2018-05-03T22:12:35.298Z,8.41
2018-05-03T22:15:03.553Z,8.26
2018-05-03T22:17:32.480Z,8.08
2018-05-03T22:20:02.000Z,7.98
2018-05-03T22:22:30.268Z,7.94
2018-05-03T22:24:58.570Z,7.83
2018-05-03T22:27:27.739Z,7.63
2018-05-03T22:29:56.046Z,7.73
2018-05-03T22:32:24.687Z,7.81
2018-05-03T22:34:53.150Z,7.85
2018-05-03T22:37:22.329Z,7.80
2018-05-03T22:39:51.973Z,7.89
2018-05-03T22:42:20.265Z,7.75
2018-05-03T22:44:48.646Z,7.80
2018-05-03T22:47:16.954Z,7.66
2018-05-03T22:49:45.878Z,7.51
2018-05-03T22:52:15.393Z,7.38
2018-05-03T22:54:44.445Z,7.36
2018-05-03T22:57:13.063Z,7.16
2018-05-03T22:59:42.108Z,7.13
2018-05-03T23:02:10.370Z,7.09
2018-05-03T23:04:39.118Z,7.03
2018-05-03T23:07:08.618Z,7.03
2018-05-03T23:09:36.890Z,7.00
2018-05-03T23:12:05.170Z,7.02
2018-05-03T23:14:33.490Z,7.05
2018-05-03T23:17:02.143Z,7.01
2018-05-03T23:19:31.329Z,7.05
2018-05-03T23:21:59.725Z,6.94
2018-05-03T23:24:29.132Z,6.83
2018-05-03T23:26:58.277Z,6.78
2018-05-03T23:29:26.729Z,6.63
2018-05-03T23:31:55.700Z,6.48
2018-05-03T23:34:25.250Z,6.42
2018-05-03T23:36:53.519Z,6.33
2018-05-03T23:39:21.790Z,6.08
2018-05-03T23:41:50.343Z,6.16
2018-05-03T23:44:18.859Z,6.20
2018-05-03T23:46:48.181Z,6.18
2018-05-03T23:49:17.191Z,6.29
2018-05-03T23:51:46.077Z,6.38
2018-05-03T23:54:14.375Z,6.41
2018-05-03T23:56:42.716Z,6.42
2018-05-03T23:59:10.984Z,6.27
